Time;durP1;ratioP1;P1;durP2;ratioP2;P2;SDS_P1;SDS_P2;PMS_P1;PMS_P2;Temp;Humidity;BMP_temperature;BMP_pressure;BME280_temperature;BME280_humidity;BME280_pressure;Samples;Min_cycle;Max_cycle;Signal;HPM_P1;HPM_P2
2023/05/29 19:14:29;;;;;;;;;4.00;4.00;;;;;23.31;39.96;101481.00;5308077;23;46644;-41
2023/05/29 19:16:55;;;;;;;;;6.00;4.00;;;;;23.30;40.20;101482.78;4958847;28;45297;-40
2023/05/29 19:19:20;;;;;;;;;8.50;6.00;;;;;23.29;39.98;101481.06;4957892;28;45412;-39
2023/05/29 19:21:46;;;;;;;;;5.25;5.25;;;;;23.27;39.58;101476.81;4957221;28;45329;-39
2023/05/29 19:24:11;;;;;;;;;9.50;6.00;;;;;23.26;39.61;101480.41;4958142;28;45227;-39
2023/05/29 19:26:41;;;;;;;;;6.50;5.00;;;;;23.26;39.73;101480.41;4958373;28;45575;-38
2023/05/29 19:29:06;;;;;;;;;4.50;4.25;;;;;23.26;39.73;101480.41;4957961;28;46783;-40
2023/05/29 19:31:32;;;;;;;;;5.00;5.00;;;;;23.25;39.69;101476.91;4958009;28;45381;-40
2023/05/29 19:33:57;;;;;;;;;8.75;4.75;;;;;23.24;39.67;101477.00;4958074;28;48393;-39
2023/05/29 19:36:23;;;;;;;;;6.00;6.00;;;;;23.23;39.54;101475.28;4958206;28;45432;-39
2023/05/29 19:38:50;;;;;;;;;7.00;4.50;;;;;23.21;39.94;101477.16;4957770;28;45523;-39
2023/05/29 19:41:16;;;;;;;;;5.25;5.25;;;;;23.21;39.49;101485.09;4956508;28;45321;-39
2023/05/29 19:43:41;;;;;;;;;5.00;5.00;;;;;23.22;39.21;101495.59;4957924;28;45321;-40
2023/05/29 19:46:06;;;;;;;;;4.50;3.50;;;;;23.22;39.34;101494.72;4957554;28;47817;-39
2023/05/29 19:48:35;;;;;;;;;5.50;4.25;;;;;23.20;39.23;101496.63;4940273;28;46220;-40
2023/05/29 19:51:00;;;;;;;;;7.25;5.00;;;;;23.19;39.38;101495.75;4940177;28;45884;-40
2023/05/29 19:53:26;;;;;;;;;5.75;5.25;;;;;23.17;39.29;101509.06;4958019;28;45369;-41
2023/05/29 19:55:51;;;;;;;;;7.00;5.00;;;;;23.17;38.97;101503.75;4957505;28;45704;-41
2023/05/29 19:58:17;;;;;;;;;4.00;4.00;;;;;23.19;38.96;101508.97;4957545;28;46096;-41
2023/05/29 20:00:42;;;;;;;;;5.67;5.00;;;;;23.20;38.94;101515.13;4956840;28;61207;-42
2023/05/29 20:03:07;;;;;;;;;7.75;5.75;;;;;23.20;39.02;101512.50;4957239;28;51461;-42
2023/05/29 20:05:33;;;;;;;;;7.00;6.00;;;;;23.21;38.83;101519.47;4956798;28;45360;-42
2023/05/29 20:07:58;;;;;;;;;3.75;3.75;;;;;23.22;39.01;101527.34;4957670;28;46122;-41
2023/05/29 20:10:23;;;;;;;;;5.50;4.50;;;;;23.21;39.03;101530.03;4957279;28;45358;-40
2023/05/29 20:12:49;;;;;;;;;5.25;4.00;;;;;23.19;38.74;101526.63;4939279;28;65299;-42
2023/05/29 20:15:14;;;;;;;;;3.75;3.50;;;;;23.19;38.74;101531.91;4939876;28;45525;-42
2023/05/29 20:17:39;;;;;;;;;4.25;4.25;;;;;23.20;38.86;101544.22;4957275;28;45464;-42
2023/05/29 20:20:06;;;;;;;;;5.75;4.00;;;;;23.20;39.22;101528.38;4957156;28;45384;-42
2023/05/29 20:22:32;;;;;;;;;5.00;5.00;;;;;23.20;39.05;101533.66;4940360;28;45366;-41
2023/05/29 20:24:57;;;;;;;;;6.00;3.75;;;;;23.20;38.90;101534.50;4957846;28;45450;-42
2023/05/29 20:27:23;;;;;;;;;6.75;5.00;;;;;23.19;39.15;101540.72;4957078;28;45970;-41
2023/05/29 20:29:48;;;;;;;;;5.75;3.75;;;;;23.18;38.73;101544.25;4957251;28;45319;-42
2023/05/29 20:32:13;;;;;;;;;6.00;4.00;;;;;23.20;39.08;101541.59;4957317;28;45250;-42
2023/05/29 20:34:39;;;;;;;;;4.00;2.75;;;;;23.17;38.66;101551.34;4957415;28;45575;-40
2023/05/29 20:37:05;;;;;;;;;4.50;4.00;;;;;23.17;38.63;101561.94;4956925;28;46851;-38
2023/05/29 20:39:34;;;;;;;;;8.25;5.25;;;;;23.17;38.45;101554.00;4957350;28;45723;-38
2023/05/29 20:42:01;;;;;;;;;5.25;4.25;;;;;23.17;38.63;101556.66;4957391;28;45339;-38
2023/05/29 20:44:28;;;;;;;;;4.00;2.75;;;;;23.16;38.42;101565.50;4957251;28;45618;-40
2023/05/29 20:46:58;;;;;;;;;3.75;3.75;;;;;23.16;38.94;101562.88;4957004;28;47200;-41
2023/05/29 20:49:24;;;;;;;;;6.00;4.00;;;;;23.16;38.43;101569.94;4956862;28;45291;-41
2023/05/29 20:51:50;;;;;;;;;4.50;3.00;;;;;23.15;38.69;101562.97;4957259;28;45377;-41
2023/05/29 20:54:15;;;;;;;;;8.50;4.75;;;;;23.17;38.41;101571.63;4957090;28;45412;-40
2023/05/29 20:56:42;;;;;;;;;5.00;3.00;;;;;23.15;38.60;101563.81;4956346;28;57224;-39
2023/05/29 20:59:08;;;;;;;;;3.50;3.25;;;;;23.15;38.64;101562.97;4956839;28;45338;-39
2023/05/29 21:01:34;;;;;;;;;5.00;4.00;;;;;23.15;38.46;101568.25;4957132;28;45350;-39
2023/05/29 21:03:59;;;;;;;;;4.50;3.75;;;;;23.14;38.43;101570.03;4957108;28;45583;-40
2023/05/29 21:06:24;;;;;;;;;3.25;3.25;;;;;23.13;38.26;101563.03;4956371;28;55700;-39
2023/05/29 21:08:52;;;;;;;;;3.75;3.75;;;;;23.14;38.31;101572.69;4956594;28;45186;-43
2023/05/29 21:11:18;;;;;;;;;3.00;3.00;;;;;23.13;38.94;101573.59;4956853;28;45451;-39
2023/05/29 21:13:44;;;;;;;;;4.50;4.00;;;;;23.14;38.37;101577.13;4956800;28;45475;-41
2023/05/29 21:16:09;;;;;;;;;4.00;4.00;;;;;23.12;38.57;101574.53;4956818;28;46289;-40
2023/05/29 21:18:34;;;;;;;;;5.00;4.00;;;;;23.12;38.43;101565.78;4942753;28;45729;-41
2023/05/29 21:21:00;;;;;;;;;5.75;4.00;;;;;23.11;38.49;101575.47;4960050;28;45483;-39
2023/05/29 21:23:28;;;;;;;;;4.25;4.00;;;;;23.11;38.24;101569.34;4960199;28;45322;-39
2023/05/29 21:25:53;;;;;;;;;3.00;3.00;;;;;23.09;38.24;101564.16;4958762;28;46224;-39
2023/05/29 21:28:18;;;;;;;;;3.75;3.00;;;;;23.09;38.09;101572.09;4959848;28;45304;-40
2023/05/29 21:30:44;;;;;;;;;2.00;2.00;;;;;23.09;37.95;101574.72;4959959;28;45317;-39
2023/05/29 21:33:09;;;;;;;;;4.75;3.00;;;;;23.08;38.40;101585.38;4960115;28;45415;-40
2023/05/29 21:35:36;;;;;;;;;4.25;4.25;;;;;23.07;38.02;101589.81;4960039;28;45286;-41
2023/05/29 21:38:02;;;;;;;;;6.50;4.75;;;;;23.07;38.26;101587.19;4959825;28;45357;-39
2023/05/29 21:40:27;;;;;;;;;5.00;3.00;;;;;23.06;38.39;101584.59;4959667;28;45389;-39
2023/05/29 21:42:55;;;;;;;;;6.00;6.00;;;;;23.05;38.33;101586.41;4959955;28;45262;-42
2023/05/29 21:45:21;;;;;;;;;4.25;2.75;;;;;23.04;38.14;101589.97;4959427;28;47154;-40
2023/05/29 21:47:48;;;;;;;;;4.25;4.25;;;;;23.02;38.53;101589.19;4959524;28;45384;-39
2023/05/29 21:50:14;;;;;;;;;5.25;4.00;;;;;23.03;38.11;101598.00;4959552;28;45448;-38
2023/05/29 21:52:40;;;;;;;;;4.00;4.00;;;;;23.01;38.01;101593.66;4959804;28;45338;-38
2023/05/29 21:55:06;;;;;;;;;3.00;3.00;;;;;23.01;38.01;101591.00;4942415;28;47632;-39
2023/05/29 21:57:31;;;;;;;;;4.00;4.00;;;;;23.00;37.86;101585.78;4959463;28;45305;-40
2023/05/29 21:59:57;;;;;;;;;7.00;4.00;;;;;23.00;38.24;101591.06;4958910;28;58828;-40
2023/05/29 22:02:22;;;;;;;;;4.50;4.00;;;;;22.99;38.02;101589.34;4959601;28;45483;-39
2023/05/29 22:04:47;;;;;;;;;6.25;4.25;;;;;22.98;37.85;101588.53;4941814;28;46367;-39
2023/05/29 22:07:13;;;;;;;;;5.00;4.00;;;;;22.97;38.12;101591.25;4959237;28;45320;-39
2023/05/29 22:09:38;;;;;;;;;3.00;2.50;;;;;22.97;37.97;101601.84;4959541;28;45461;-39
2023/05/29 22:12:04;;;;;;;;;3.75;3.25;;;;;22.97;37.97;101601.84;4959866;28;45435;-38
2023/05/29 22:14:30;;;;;;;;;3.50;3.25;;;;;22.97;37.73;101599.19;4958944;28;45364;-39
2023/05/29 22:16:55;;;;;;;;;8.00;5.00;;;;;22.95;37.95;101604.53;4959058;28;45381;-40
2023/05/29 22:19:23;;;;;;;;;6.25;3.25;;;;;22.96;37.60;101602.75;4958777;28;51769;-39
2023/05/29 22:21:49;;;;;;;;;4.50;3.50;;;;;22.95;37.83;101604.53;4959204;28;45584;-38
2023/05/29 22:24:15;;;;;;;;;3.25;2.25;;;;;22.95;37.66;101599.25;4959035;28;46692;-39
2023/05/29 22:26:41;;;;;;;;;3.00;3.00;;;;;22.94;37.66;101594.91;4958634;28;45354;-44
2023/05/29 22:29:07;;;;;;;;;4.00;4.00;;;;;22.94;37.94;101607.28;4959015;28;45664;-40
2023/05/29 22:31:33;;;;;;;;;6.00;4.25;;;;;22.91;37.84;101603.00;4959208;28;45586;-39
2023/05/29 22:33:59;;;;;;;;;4.25;3.00;;;;;22.92;37.47;101609.13;4958659;28;46070;-39
2023/05/29 22:36:24;;;;;;;;;4.25;4.00;;;;;22.90;37.42;101603.06;4925365;28;45918;-38
2023/05/29 22:38:50;;;;;;;;;5.50;4.50;;;;;22.90;37.44;101611.88;4958970;28;45337;-38
2023/05/29 22:41:16;;;;;;;;;4.00;3.50;;;;;22.87;37.56;101604.09;4958875;28;45345;-37
2023/05/29 22:43:41;;;;;;;;;3.75;3.50;;;;;22.85;37.29;101614.75;4958611;28;46303;-39
2023/05/29 22:46:07;;;;;;;;;3.00;3.00;;;;;22.85;37.27;101620.06;4958876;28;45214;-39
2023/05/29 22:48:33;;;;;;;;;3.00;3.00;;;;;22.85;37.48;101625.34;4958775;28;45354;-39
2023/05/29 22:50:58;;;;;;;;;3.00;3.00;;;;;22.84;37.58;101623.63;4958837;28;45565;-39
2023/05/29 22:53:24;;;;;;;;;4.00;4.00;;;;;22.84;37.41;101618.34;4958402;28;45317;-39
2023/05/29 22:55:50;;;;;;;;;4.00;2.00;;;;;22.82;37.11;101622.84;4958483;28;45288;-39
2023/05/29 22:58:16;;;;;;;;;4.50;4.00;;;;;22.83;36.72;101615.75;4958827;28;45394;-39
2023/05/29 23:00:45;;;;;;;;;4.00;4.00;;;;;22.83;36.89;101621.03;4958653;28;45540;-39
2023/05/29 23:03:12;;;;;;;;;3.25;2.50;;;;;22.82;36.94;101625.50;4958868;28;47080;-40
2023/05/29 23:05:37;;;;;;;;;4.00;4.00;;;;;22.81;36.88;101629.06;4958737;28;45275;-41
2023/05/29 23:08:04;;;;;;;;;3.50;3.00;;;;;22.81;37.17;101626.44;4958591;28;45354;-41
2023/05/29 23:10:30;;;;;;;;;3.50;3.50;;;;;22.81;37.14;101623.78;4958588;28;45286;-39
2023/05/29 23:12:56;;;;;;;;;4.00;4.00;;;;;22.80;36.89;101627.34;4958236;28;46956;-39
2023/05/29 23:15:22;;;;;;;;;2.75;2.50;;;;;22.80;36.73;101622.06;4958118;28;45479;-40
2023/05/29 23:17:48;;;;;;;;;4.00;3.00;;;;;22.79;36.51;101630.09;4958439;28;45394;-40
2023/05/29 23:20:13;;;;;;;;;4.00;4.00;;;;;22.79;36.67;101619.53;4958263;28;45427;-40
2023/05/29 23:22:38;;;;;;;;;4.00;3.00;;;;;22.79;36.79;101627.44;4940946;28;48205;-41
2023/05/29 23:25:04;;;;;;;;;3.00;3.00;;;;;22.78;36.66;101617.81;4957976;28;50229;-40
2023/05/29 23:27:31;;;;;;;;;4.00;2.50;;;;;22.78;36.64;101625.75;4958245;28;45363;-43
2023/05/29 23:29:57;;;;;;;;;5.00;3.25;;;;;22.77;36.61;101632.78;4957590;28;45348;-41
2023/05/29 23:32:22;;;;;;;;;4.00;2.50;;;;;22.77;36.75;101626.66;4957872;28;45357;-40
2023/05/29 23:34:47;;;;;;;;;2.25;2.25;;;;;22.76;36.43;101624.97;4957711;28;49849;-39
2023/05/29 23:37:13;;;;;;;;;3.33;3.00;;;;;22.75;36.29;101624.13;4957758;28;56366;-40
2023/05/29 23:39:38;;;;;;;;;4.25;3.00;;;;;22.75;36.68;101628.53;4957902;28;45571;-38
2023/05/29 23:42:04;;;;;;;;;4.75;2.25;;;;;22.74;36.42;101618.88;4957162;28;52184;-39
2023/05/29 23:44:30;;;;;;;;;4.00;3.00;;;;;22.73;36.42;101625.97;4957866;28;45167;-39
2023/05/29 23:46:56;;;;;;;;;2.25;2.25;;;;;22.72;36.33;101629.56;4957995;28;45291;-37
2023/05/29 23:49:21;;;;;;;;;3.50;3.00;;;;;22.71;36.39;101627.84;4940829;28;45232;-39
2023/05/29 23:51:48;;;;;;;;;4.00;3.00;;;;;22.70;36.21;101632.28;4957586;28;46373;-38
2023/05/29 23:54:14;;;;;;;;;4.00;2.75;;;;;22.69;36.26;101627.06;4958264;28;45754;-38
2023/05/29 23:56:39;;;;;;;;;3.00;3.00;;;;;22.69;36.37;101629.72;4958201;28;45341;-40
2023/05/29 23:59:06;;;;;;;;;5.00;3.00;;;;;22.69;36.13;101633.22;4958027;28;45261;-41
